createdAt,value
2017-09-08T00:04:26.601Z,3.20
2017-09-08T00:09:29.286Z,3.33
2017-09-08T00:14:46.294Z,4.00
2017-09-08T00:20:03.607Z,4.07
2017-09-08T00:25:05.331Z,3.20
2017-09-08T00:30:06.999Z,3.80
2017-09-08T00:35:08.688Z,3.27
2017-09-08T00:40:10.410Z,4.20
2017-09-08T00:45:12.017Z,3.87
2017-09-08T00:50:13.736Z,3.43
2017-09-08T00:55:15.395Z,4.10
2017-09-08T01:00:18.113Z,3.70
2017-09-08T01:05:19.740Z,4.20
2017-09-08T01:10:21.440Z,3.20
2017-09-08T01:15:23.237Z,3.60
2017-09-08T01:20:24.914Z,3.83
2017-09-08T01:25:26.561Z,3.90
2017-09-08T01:30:28.227Z,4.23
2017-09-08T01:35:29.921Z,3.60
2017-09-08T01:40:31.548Z,4.23
2017-09-08T01:45:33.229Z,4.70
2017-09-08T01:50:34.895Z,4.13
2017-09-08T01:55:36.581Z,4.20
2017-09-08T02:00:38.177Z,3.30
2017-09-08T02:05:39.925Z,3.53
2017-09-08T02:10:41.597Z,3.70
2017-09-08T02:15:43.270Z,3.70
2017-09-08T02:20:44.956Z,3.60
2017-09-08T02:25:47.632Z,4.20
2017-09-08T02:30:49.304Z,4.03
2017-09-08T02:35:51.999Z,3.87
2017-09-08T02:41:08.611Z,4.27
2017-09-08T02:46:25.511Z,4.50
2017-09-08T02:51:42.403Z,3.90
2017-09-08T02:56:59.889Z,3.83
2017-09-08T03:02:16.098Z,3.90
2017-09-08T03:07:32.708Z,3.43
2017-09-08T03:12:49.558Z,3.97
2017-09-08T03:17:51.670Z,3.73
2017-09-08T03:22:53.465Z,3.93
2017-09-08T03:27:55.121Z,3.60
2017-09-08T03:32:56.794Z,3.70
2017-09-08T03:37:58.492Z,3.70
2017-09-08T03:43:00.177Z,3.63
2017-09-08T03:48:01.832Z,4.17
2017-09-08T03:53:03.554Z,4.07
2017-09-08T03:58:05.161Z,4.00
2017-09-08T04:03:06.929Z,3.80
2017-09-08T04:08:08.595Z,4.20
2017-09-08T04:13:10.321Z,4.07
2017-09-08T04:18:11.924Z,3.67
2017-09-08T04:23:13.661Z,4.03
2017-09-08T04:28:15.390Z,3.67
2017-09-08T04:33:17.087Z,3.73
2017-09-08T04:38:18.773Z,3.50
2017-09-08T04:43:20.437Z,3.77
2017-09-08T04:48:22.113Z,3.20
2017-09-08T04:53:23.767Z,3.27
2017-09-08T04:58:25.436Z,3.50
2017-09-08T05:03:27.112Z,3.40
2017-09-08T05:08:28.802Z,3.93
2017-09-08T05:13:30.501Z,4.00
2017-09-08T05:18:32.473Z,3.60
2017-09-08T05:23:34.652Z,3.90
2017-09-08T05:28:37.455Z,3.93
2017-09-08T05:33:39.152Z,3.80
2017-09-08T05:38:40.773Z,3.83
2017-09-08T05:43:42.436Z,3.67
2017-09-08T05:48:44.168Z,3.53
2017-09-08T05:53:45.843Z,4.10
2017-09-08T05:58:47.488Z,3.43
2017-09-08T06:03:50.121Z,3.40
2017-09-08T06:08:52.805Z,3.60
2017-09-08T06:13:55.464Z,3.40
2017-09-08T06:18:57.174Z,3.20
2017-09-08T06:23:58.847Z,3.73
2017-09-08T06:29:00.462Z,3.40
2017-09-08T06:34:02.169Z,3.27
2017-09-08T06:39:04.070Z,3.07
2017-09-08T06:44:05.744Z,3.90
2017-09-08T06:49:07.381Z,3.67
2017-09-08T06:54:09.043Z,3.57
2017-09-08T06:59:10.762Z,3.10
2017-09-08T07:04:13.458Z,3.40
2017-09-08T07:09:17.178Z,3.50
2017-09-08T07:14:18.828Z,4.50
2017-09-08T07:19:20.468Z,4.27
2017-09-08T07:24:22.299Z,3.70
2017-09-08T07:29:26.021Z,3.80
2017-09-08T07:34:27.648Z,5.60
2017-09-08T07:39:29.366Z,3.13
2017-09-08T07:44:31.449Z,3.20
2017-09-08T07:49:33.308Z,3.03
2017-09-08T07:54:35.064Z,3.30
2017-09-08T07:59:37.663Z,3.07
2017-09-08T08:04:39.380Z,3.37
2017-09-08T08:09:41.124Z,3.60
2017-09-08T08:14:44.341Z,3.00
2017-09-08T08:19:47.008Z,3.03
2017-09-08T08:24:48.937Z,2.90
2017-09-08T08:29:52.958Z,3.20
2017-09-08T08:34:55.087Z,3.00
2017-09-08T08:39:56.763Z,3.20
2017-09-08T08:44:58.597Z,3.00
2017-09-08T08:50:00.209Z,2.67
2017-09-08T08:55:01.889Z,3.10
2017-09-08T09:00:03.620Z,4.13
2017-09-08T09:05:05.334Z,3.13
2017-09-08T09:10:07.004Z,3.30
2017-09-08T09:15:08.677Z,3.07
2017-09-08T09:20:10.349Z,3.10
2017-09-08T09:25:13.045Z,2.87
2017-09-08T09:30:14.713Z,2.80
2017-09-08T09:35:17.304Z,2.77
2017-09-08T09:40:18.982Z,2.90
2017-09-08T09:45:20.660Z,2.90
2017-09-08T09:50:22.312Z,2.60
2017-09-08T09:55:23.999Z,2.60
2017-09-08T10:00:25.688Z,3.10
2017-09-08T10:05:28.372Z,2.83
2017-09-08T10:10:30.052Z,2.63
2017-09-08T10:15:31.713Z,3.43
2017-09-08T10:20:33.389Z,2.70
2017-09-08T10:25:35.055Z,2.87
2017-09-08T10:30:36.736Z,3.00
2017-09-08T10:35:38.404Z,2.80
2017-09-08T10:40:40.088Z,3.10
2017-09-08T10:45:41.764Z,3.10
2017-09-08T10:50:43.432Z,3.10
2017-09-08T10:55:45.098Z,3.47
2017-09-08T11:00:46.785Z,3.03
2017-09-08T11:05:49.474Z,3.20
2017-09-08T11:10:51.136Z,3.10
2017-09-08T11:15:52.813Z,3.17
2017-09-08T11:20:54.489Z,3.10
2017-09-08T11:25:56.160Z,3.80
2017-09-08T11:30:57.828Z,3.33
2017-09-08T11:36:05.591Z,3.40
2017-09-08T11:41:07.392Z,3.07
2017-09-08T11:46:08.999Z,3.07
2017-09-08T11:51:10.669Z,3.20
2017-09-08T11:56:12.339Z,3.03
2017-09-08T12:01:14.128Z,3.10
2017-09-08T12:06:15.972Z,2.77
2017-09-08T12:11:17.656Z,3.10
2017-09-08T12:16:19.432Z,2.80
2017-09-08T12:21:21.151Z,2.87
2017-09-08T12:26:22.803Z,3.20
2017-09-08T12:31:24.460Z,3.10
2017-09-08T12:36:26.455Z,2.97
2017-09-08T12:41:28.332Z,2.90
2017-09-08T12:46:29.977Z,2.97
2017-09-08T12:51:31.661Z,3.00
2017-09-08T12:56:33.361Z,2.83
2017-09-08T13:01:34.954Z,2.67
2017-09-08T13:06:36.698Z,2.60
2017-09-08T13:11:39.380Z,2.23
2017-09-08T13:16:41.024Z,1.90
2017-09-08T13:21:42.676Z,1.90
2017-09-08T13:26:44.383Z,2.00
2017-09-08T13:31:46.155Z,1.80
2017-09-08T13:36:47.830Z,1.77
2017-09-08T13:41:49.533Z,2.13
2017-09-08T13:46:51.220Z,1.93
2017-09-08T13:51:53.714Z,1.80
2017-09-08T13:56:55.381Z,1.60
2017-09-08T14:01:58.070Z,1.70
2017-09-08T14:06:59.770Z,1.50
2017-09-08T14:12:01.968Z,1.60
2017-09-08T14:17:03.937Z,1.60
2017-09-08T14:22:05.818Z,3.03
2017-09-08T14:27:07.412Z,1.87
2017-09-08T14:32:09.134Z,2.00
2017-09-08T14:37:11.652Z,1.93
2017-09-08T14:42:13.297Z,1.53
2017-09-08T14:47:14.916Z,1.60
2017-09-08T14:52:16.706Z,1.63
2017-09-08T14:57:18.344Z,1.67
2017-09-08T15:02:20.093Z,1.70
2017-09-08T15:07:21.836Z,1.70
2017-09-08T15:12:23.497Z,1.80
2017-09-08T15:17:25.175Z,1.70
2017-09-08T15:22:26.839Z,1.33
2017-09-08T15:27:28.512Z,1.93
2017-09-08T15:32:30.187Z,2.00
2017-09-08T15:37:31.876Z,1.90
2017-09-08T15:42:33.540Z,1.77
2017-09-08T15:47:35.219Z,1.80
2017-09-08T15:52:36.877Z,1.87
2017-09-08T15:57:38.553Z,1.43
2017-09-08T16:02:40.220Z,1.90
2017-09-08T16:07:41.896Z,1.67
2017-09-08T16:12:43.567Z,1.57
2017-09-08T16:17:45.145Z,1.70
2017-09-08T16:22:46.720Z,1.80
2017-09-08T16:27:48.280Z,2.73
2017-09-08T16:32:49.845Z,1.60
2017-09-08T16:37:51.412Z,1.90
2017-09-08T16:42:52.968Z,2.10
2017-09-08T16:47:54.525Z,1.77
2017-09-08T16:52:56.160Z,2.50
2017-09-08T16:57:57.732Z,2.00
2017-09-08T17:02:59.300Z,2.03
2017-09-08T17:08:00.852Z,2.10
2017-09-08T17:13:02.434Z,2.40
2017-09-08T17:18:04.049Z,2.20
2017-09-08T17:23:05.768Z,2.83
2017-09-08T17:28:07.432Z,3.03
2017-09-08T17:33:09.095Z,2.53
2017-09-08T17:38:10.768Z,3.00
2017-09-08T17:43:12.460Z,2.50
2017-09-08T17:48:14.124Z,3.10
2017-09-08T17:53:15.789Z,2.73
2017-09-08T17:58:17.460Z,3.20
2017-09-08T18:03:20.673Z,2.63
2017-09-08T18:08:22.457Z,2.87
2017-09-08T18:13:24.128Z,2.73
2017-09-08T18:18:25.795Z,3.13
2017-09-08T18:23:27.479Z,2.60
2017-09-08T18:28:29.145Z,2.63
2017-09-08T18:33:30.812Z,3.60
2017-09-08T18:38:32.524Z,2.90
2017-09-08T18:43:34.264Z,2.67
2017-09-08T18:48:35.953Z,3.33
2017-09-08T18:53:37.628Z,2.70
2017-09-08T18:58:39.301Z,2.63
2017-09-08T19:03:51.705Z,2.33
2017-09-08T19:08:53.480Z,2.90
2017-09-08T19:13:55.154Z,2.97
2017-09-08T19:18:56.824Z,2.87
2017-09-08T19:23:59.463Z,3.10
2017-09-08T19:29:01.090Z,3.03
2017-09-08T19:34:02.842Z,3.37
2017-09-08T19:39:06.939Z,2.73
2017-09-08T19:44:08.573Z,3.10
2017-09-08T19:49:10.250Z,3.10
2017-09-08T19:54:11.936Z,2.73
2017-09-08T19:59:13.699Z,2.80
2017-09-08T20:04:15.381Z,3.30
2017-09-08T20:09:17.052Z,2.90
2017-09-08T20:14:18.732Z,2.53
2017-09-08T20:19:20.402Z,2.70
2017-09-08T20:24:23.075Z,2.60
2017-09-08T20:29:24.754Z,2.57
2017-09-08T20:34:27.050Z,2.20
2017-09-08T20:39:28.722Z,2.63
2017-09-08T20:44:30.423Z,2.20
2017-09-08T20:49:31.980Z,2.07
2017-09-08T20:54:33.860Z,2.10
2017-09-08T20:59:35.521Z,3.20
2017-09-08T21:04:37.165Z,2.80
2017-09-08T21:09:38.776Z,2.30
2017-09-08T21:14:40.393Z,2.23
2017-09-08T21:19:41.964Z,1.90
2017-09-08T21:24:43.541Z,2.03
2017-09-08T21:29:45.128Z,2.70
2017-09-08T21:34:46.682Z,2.60
2017-09-08T21:39:48.214Z,2.10
2017-09-08T21:44:49.780Z,2.20
2017-09-08T21:49:51.344Z,2.20
2017-09-08T21:54:52.900Z,2.33
2017-09-08T21:59:54.487Z,2.10
2017-09-08T22:04:56.044Z,2.17
2017-09-08T22:09:57.600Z,1.83
2017-09-08T22:14:59.147Z,2.27
2017-09-08T22:20:00.711Z,1.77
2017-09-08T22:25:02.281Z,2.30
2017-09-08T22:30:03.836Z,2.20
2017-09-08T22:35:05.392Z,2.03
2017-09-08T22:40:06.975Z,2.00
2017-09-08T22:45:08.536Z,1.87
2017-09-08T22:50:10.128Z,2.07
2017-09-08T22:55:11.698Z,1.70
2017-09-08T23:00:13.316Z,1.87
2017-09-08T23:05:14.880Z,2.03
2017-09-08T23:10:16.452Z,2.40
2017-09-08T23:15:18.017Z,2.23
2017-09-08T23:20:19.581Z,1.60
2017-09-08T23:25:21.166Z,2.10
2017-09-08T23:30:22.745Z,1.80
2017-09-08T23:35:24.319Z,1.90
2017-09-08T23:40:25.893Z,2.20
2017-09-08T23:45:27.464Z,2.17
2017-09-08T23:50:29.062Z,2.07
2017-09-08T23:55:30.624Z,2.20
